Terminal Aerodrome Forecast
Issued by NWS

Home | Current Version | Previous Version | Text Only | Print | Product List | Glossary On
Versions: 1 2 3 4 5 6 7 8 9 10 11 12
000
FTUS43 KOAX 241720
TAFBFF
TAF
KBFF 241720Z 2418/2518 31015G22KT P6SM FEW050
     FM242100 30012KT P6SM SCT050
     FM250000 11011KT P6SM OVC050
     FM250300 11009KT P6SM VCSH OVC040
     FM251100 29009KT P6SM BKN070=

USA.gov is the U.S. government's official web portal to all federal, state and local government web resources and services.